Sunday, December 17, 2017, 4:14 PM EST
Back to Local

KMRB, Martinsburg Eastern Wv Reg

Location: Martinsburg, WV, United States Lat: 39.4
Local Time: 4:14 PM EST (21:14 GMT) Lon: -77.983
Time Zone: US/Eastern Elev: 557 ft

Show me the last for .
Show Coded

Time T Td Feel RH Dir Speed Gust Alt SLP Vis Weather Sky Remarks
2017-12-17 15:53 45 30 44 55 80° 3 - 30.15 30.16 10 FEW055 SCT090 OVC110 None
2017-12-17 14:53 47 30 46 51 80° 3 - 30.15 30.16 10 BKN120 None
2017-12-17 13:53 47 29 - 49 - Calm - 30.16 30.17 10 CLR None
2017-12-17 12:53 45 30 42 55 170° 6 - 30.18 30.19 10 CLR 6-hr Min Temp (1pm): 28.9°F
6-hr Max Temp (1pm): 45.0°F
2017-12-17 11:53 44 30 42 57 70° 5 - 30.21 30.22 10 CLR None
2017-12-17 10:53 39 28 37 64 180° 3 - 30.27 30.28 10 CLR None
2017-12-17 09:53 36 27 - 69 - Calm - 30.23 30.24 10 CLR None
2017-12-17 08:53 33 25 29 71 190° 5 - 30.24 30.25 10 CLR None
2017-12-17 07:53 30 24 - 78 - Calm - 30.23 30.24 10 CLR None
2017-12-17 06:53 32 24 27 72 190° 5 - 30.22 30.23 10 CLR 6-hr Min Temp (7am): 24.1°F
6-hr Max Temp (7am): 33.1°F
2017-12-17 05:53 27 23 20 84 230° 6 - 30.21 30.23 10 CLR None
2017-12-17 04:53 31 22 24 68 180° 7 - 30.19 30.21 10 CLR None
2017-12-17 03:53 25 21 - 84 - Calm - 30.21 30.22 9 CLR None
2017-12-17 02:53 25 20 21 80 220° 3 - 30.21 30.22 9 CLR None
2017-12-17 01:53 25 20 18 80 190° 6 - 30.20 30.21 9 CLR None
2017-12-17 00:53 27 21 - 77 - Calm - 30.17 30.18 10 CLR 6-hr Min Temp (1am): 25.0°F
6-hr Max Temp (1am): 37.0°F
2017-12-16 23:53 29 21 25 71 230° 3 - 30.18 30.19 9 CLR 24-hr Min Temp (12am): 25.0°F
24-hr Max Temp (12am): 50.0°F
2017-12-16 22:53 26 21 - 80 - Calm - 30.16 30.17 10 CLR None
2017-12-16 21:53 29 21 24 71 260° 5 - 30.15 30.16 10 CLR None
2017-12-16 20:53 29 21 - 71 - Calm - 30.14 30.16 10 CLR None
2017-12-16 19:53 36 22 - 56 - Calm - 30.12 30.14 10 CLR None
2017-12-16 18:53 34 22 31 60 260° 3 - 30.11 30.12 10 CLR 6-hr Min Temp (7pm): 33.1°F
6-hr Max Temp (7pm): 50.0°F
2017-12-16 17:53 39 23 - 52 - Calm - 30.08 30.09 10 CLR None
2017-12-16 16:53 44 23 40 42 270° 8 - 30.05 30.06 10 CLR None

Support USWX by starting your Amazon purchase here.